createdAt,value
2023-04-25T08:25:50.459Z,27.1
2023-04-25T08:31:44.190Z,26.3
2023-04-25T08:37:48.986Z,25.3
2023-04-25T08:43:40.650Z,24.4
2023-04-25T08:49:37.276Z,24.4
2023-04-25T08:55:31.374Z,33.6
2023-04-25T09:01:23.342Z,43.5
2023-04-25T09:07:22.493Z,39.7
2023-04-25T09:12:58.730Z,39.9
2023-04-25T09:18:37.951Z,48.1
2023-04-25T09:24:53.890Z,42.5
2023-04-25T09:30:46.922Z,43.3
2023-04-25T09:36:39.733Z,43.1
2023-04-25T09:42:33.199Z,43.1
2023-04-25T09:48:24.827Z,44.2
2023-04-25T09:54:16.377Z,44.9
2023-04-25T10:00:09.815Z,46.7
2023-04-25T10:06:02.615Z,46.8
2023-04-25T10:11:53.346Z,46.4
2023-04-25T10:17:47.573Z,45.7
2023-04-25T10:23:23.188Z,45
2023-04-25T10:29:13.277Z,44.9
2023-04-25T10:35:07.253Z,44.2
2023-04-25T10:40:58.345Z,42.5
2023-04-25T10:46:49.677Z,42.9
2023-04-25T10:52:51.193Z,45.7
2023-04-25T10:58:45.017Z,46.9
2023-04-25T11:04:52.143Z,46.1
2023-04-25T11:11:14.180Z,47.2
2023-04-25T11:17:23.367Z,47.4
2023-04-25T11:23:14.844Z,85
2023-04-25T11:29:08.931Z,46.6
2023-04-25T11:35:01.768Z,45.8
2023-04-25T11:40:53.567Z,45.3
2023-04-25T11:46:56.959Z,45.9
2023-04-25T11:52:54.436Z,47.4
2023-04-25T11:58:45.180Z,46.9
2023-04-25T12:04:49.781Z,46.5
2023-04-25T12:10:56.359Z,46
2023-04-25T12:16:16.803Z,45.6
2023-04-25T12:22:15.585Z,44.9
2023-04-25T12:28:07.634Z,42.5
2023-04-25T12:34:06.825Z,39.1
2023-04-25T12:40:03.240Z,35.9
2023-04-25T12:45:39.332Z,34.4
2023-04-25T12:51:41.487Z,33.1
2023-04-25T12:57:36.753Z,31.5
2023-04-25T13:03:30.137Z,30
2023-04-25T13:09:22.593Z,28.6
2023-04-25T13:15:20.891Z,27.3
2023-04-25T13:21:12.601Z,26.1
2023-04-25T13:26:49.316Z,25
2023-04-25T13:32:27.204Z,23.9
2023-04-25T13:38:04.146Z,23
2023-04-25T13:43:40.902Z,22
2023-04-25T13:50:06.091Z,20.9
2023-04-25T13:55:43.821Z,19.9
2023-04-25T14:01:36.554Z,19.4
2023-04-25T14:07:31.240Z,19.5
2023-04-25T14:13:21.379Z,20.3
2023-04-25T14:24:50.863Z,21.4
2023-04-25T14:30:41.273Z,21.7
2023-04-25T14:36:17.215Z,21.8
2023-04-25T14:42:10.143Z,21.9
2023-04-25T14:47:15.692Z,22
2023-04-25T14:52:20.847Z,22.3
2023-04-25T14:57:42.970Z,22.6
2023-04-25T15:03:03.654Z,22.6
2023-04-25T15:08:44.622Z,22.3
2023-04-25T15:14:22.494Z,21.9
2023-04-25T15:20:03.268Z,21.4
2023-04-25T15:25:38.872Z,20.9
2023-04-25T15:31:16.224Z,20.3
2023-04-25T15:37:09.599Z,19.7
2023-04-25T15:43:00.944Z,19.1
2023-04-25T15:48:56.968Z,18.4
2023-04-25T15:54:34.035Z,17.9
2023-04-25T15:59:56.317Z,17.3
2023-04-25T16:05:52.705Z,16.6
2023-04-25T16:11:28.306Z,15.9
2023-04-25T16:17:04.029Z,15.4
2023-04-25T16:22:42.985Z,14.8
2023-04-25T16:28:18.862Z,14.3
2023-04-25T16:33:41.985Z,13.9
2023-04-25T16:39:19.268Z,13.5
2023-04-25T16:44:55.702Z,13.1
2023-04-25T16:50:16.585Z,12.9
2023-04-25T16:55:53.598Z,12.6
2023-04-25T17:01:16.422Z,12.3
2023-04-25T17:07:10.054Z,12
2023-04-25T17:12:47.499Z,11.8
2023-04-25T17:18:33.777Z,11.6
2023-04-25T17:23:39.795Z,11.4
2023-04-25T17:29:01.532Z,11.2
2023-04-25T17:33:51.551Z,11.1
2023-04-25T17:39:27.015Z,10.9
2023-04-25T17:44:49.556Z,10.8
2023-04-25T17:49:55.506Z,10.6
2023-04-25T17:55:00.869Z,10.4
2023-04-25T18:00:26.254Z,10.3
2023-04-25T18:06:04.805Z,10.2
2023-04-25T18:11:25.378Z,10.1
2023-04-25T18:17:02.315Z,9.9
2023-04-25T18:22:54.385Z,9.8
2023-04-25T18:28:18.087Z,9.7
2023-04-25T18:33:45.700Z,9.6
2023-04-25T18:40:00.913Z,9.4
2023-04-25T18:46:21.900Z,9.3
2023-04-25T18:51:47.121Z,9.2
2023-04-25T18:57:39.984Z,9.1
2023-04-25T19:03:18.872Z,9
2023-04-25T19:08:58.472Z,8.9
2023-04-25T19:14:46.068Z,8.8
2023-04-25T19:20:39.626Z,8.7
2023-04-25T19:26:37.889Z,8.6
2023-04-25T19:32:15.827Z,8.6
2023-04-25T19:37:53.934Z,8.5
2023-04-25T19:43:33.004Z,8.4
2023-04-25T19:48:57.126Z,8.4
2023-04-25T19:54:34.357Z,8.3
2023-04-25T20:00:13.271Z,8.3
2023-04-25T20:05:53.173Z,8.2
2023-04-25T20:11:31.357Z,8.2
2023-04-25T20:17:09.607Z,8.1
2023-04-25T20:22:47.037Z,8.1
2023-04-25T20:28:24.546Z,8.1
2023-04-25T20:34:20.221Z,8.1
2023-04-25T20:40:11.558Z,8
2023-04-25T20:45:47.444Z,8
2023-04-25T20:51:39.792Z,8
2023-04-25T20:57:32.486Z,8
2023-04-25T21:03:08.280Z,8
2023-04-25T21:08:45.988Z,8
2023-04-25T21:14:38.039Z,7.9
2023-04-25T21:20:30.573Z,7.9
2023-04-25T21:26:07.081Z,7.9
2023-04-25T21:31:59.093Z,7.9
2023-04-25T21:37:35.287Z,7.9
2023-04-25T21:43:11.904Z,7.9
2023-04-25T21:49:18.107Z,7.9
2023-04-25T21:54:54.323Z,7.9
2023-04-25T22:00:46.366Z,7.9
2023-04-25T22:06:24.724Z,7.9
2023-04-25T22:11:57.319Z,7.9
2023-04-25T22:17:19.156Z,7.9
2023-04-25T22:22:55.852Z,7.8
2023-04-25T22:28:45.992Z,7.8
2023-04-25T22:34:37.921Z,7.8
2023-04-25T22:40:29.217Z,7.8
2023-04-25T22:46:20.407Z,7.8
